createdAt,value
2022-08-01T00:04:30.350Z,4.30
2022-08-01T00:09:31.519Z,3.70
2022-08-01T00:14:32.937Z,6.00
2022-08-01T00:19:34.651Z,8.50
2022-08-01T00:24:35.815Z,4.40
2022-08-01T00:30:12.218Z,3.80
2022-08-01T00:45:00.421Z,3.80
2022-08-01T00:50:04.210Z,3.80
2022-08-01T00:55:05.647Z,6.20
2022-08-01T01:00:08.040Z,8.30
2022-08-01T01:05:09.354Z,7.00
2022-08-01T01:10:28.823Z,4.70
2022-08-01T01:15:48.746Z,7.80
2022-08-01T01:21:18.765Z,5.40
2022-08-01T01:26:36.639Z,5.80
2022-08-01T01:31:46.352Z,7.10
2022-08-01T01:36:49.922Z,5.30
2022-08-01T01:41:53.761Z,5.70
2022-08-01T01:46:56.992Z,5.10
2022-08-01T01:52:02.273Z,5.20
2022-08-01T01:57:06.776Z,7.90
2022-08-01T02:02:09.536Z,4.10
2022-08-01T02:07:15.068Z,4.10
2022-08-01T02:12:19.235Z,3.90
2022-08-01T02:17:22.014Z,5.40
2022-08-01T02:22:37.753Z,5.00
2022-08-01T02:28:07.441Z,4.30
2022-08-01T02:33:32.150Z,4.00
2022-08-01T02:38:40.584Z,5.20
2022-08-01T02:43:53.242Z,5.80
2022-08-01T02:48:59.584Z,4.70
2022-08-01T02:54:03.040Z,7.60
2022-08-01T02:59:25.997Z,6.60
2022-08-01T03:04:28.138Z,5.10
2022-08-01T03:09:32.211Z,4.50
2022-08-01T03:14:36.631Z,7.10
2022-08-01T03:19:39.567Z,6.10
2022-08-01T03:24:42.441Z,6.70
2022-08-01T03:29:45.409Z,7.80
2022-08-01T03:34:47.145Z,5.60
2022-08-01T03:39:52.502Z,8.60
2022-08-01T03:44:57.346Z,6.20
2022-08-01T03:50:00.733Z,6.50
2022-08-01T03:55:07.223Z,6.90
2022-08-01T04:00:09.301Z,7.30
2022-08-01T04:05:10.775Z,8.00
2022-08-01T04:10:11.931Z,7.40
2022-08-01T04:15:14.173Z,9.30
2022-08-01T04:20:16.025Z,8.40
2022-08-01T04:25:28.365Z,9.90
2022-08-01T04:30:34.877Z,9.30
2022-08-01T04:36:01.450Z,10.80
2022-08-01T04:41:08.946Z,9.20
2022-08-01T04:46:12.151Z,8.90
2022-08-01T04:51:17.713Z,9.70
2022-08-01T04:56:20.885Z,7.50
2022-08-01T05:01:22.133Z,9.30
2022-08-01T05:06:23.315Z,7.90
2022-08-01T05:11:24.694Z,7.40
2022-08-01T05:16:26.734Z,7.90
2022-08-01T05:21:27.863Z,6.70
2022-08-01T05:26:29.021Z,8.40
2022-08-01T05:31:30.196Z,6.70
2022-08-01T05:36:31.352Z,7.10
2022-08-01T05:41:32.558Z,6.10
2022-08-01T05:46:34.320Z,8.20
2022-08-01T05:51:35.522Z,8.40
2022-08-01T05:56:36.688Z,5.90
2022-08-01T06:01:37.907Z,6.50
2022-08-01T06:06:39.116Z,7.00
2022-08-01T06:11:40.494Z,9.10
2022-08-01T06:16:41.688Z,5.20
2022-08-01T06:21:42.851Z,4.80
2022-08-01T06:26:43.990Z,4.50
2022-08-01T06:31:45.084Z,6.10
2022-08-01T06:36:46.228Z,3.70
2022-08-01T06:41:47.606Z,5.00
2022-08-01T06:46:49.575Z,4.20
2022-08-01T06:51:51.008Z,3.20
2022-08-01T06:56:52.136Z,3.00
2022-08-01T07:01:53.309Z,1.80
2022-08-01T07:06:54.450Z,3.90
2022-08-01T07:11:55.922Z,3.30
2022-08-01T07:16:57.271Z,2.00
2022-08-01T07:21:58.498Z,2.30
2022-08-01T07:26:59.672Z,5.30
2022-08-01T07:32:21.206Z,1.80
2022-08-01T07:37:47.649Z,2.20
2022-08-01T07:42:45.637Z,3.90
2022-08-01T07:47:47.224Z,1.60
2022-08-01T07:52:48.376Z,1.80
2022-08-01T07:57:49.727Z,2.40
2022-08-01T08:02:51.024Z,2.20
2022-08-01T08:07:53.275Z,1.70
2022-08-01T08:12:54.473Z,2.40
2022-08-01T08:17:55.851Z,7.50
2022-08-01T08:23:00.348Z,2.80
2022-08-01T08:28:01.876Z,3.30
2022-08-01T08:33:03.023Z,2.20
2022-08-01T08:38:04.163Z,2.50
2022-08-01T08:43:06.302Z,2.70
2022-08-01T08:48:07.753Z,2.90
2022-08-01T08:53:10.512Z,6.30
2022-08-01T08:58:19.134Z,2.40
2022-08-01T09:03:20.405Z,3.50
2022-08-01T09:08:21.843Z,2.80
2022-08-01T09:13:23.074Z,4.90
2022-08-01T09:18:53.646Z,1.50
2022-08-01T09:23:59.027Z,1.80
2022-08-01T09:29:05.607Z,2.50
2022-08-01T09:34:08.460Z,2.20
2022-08-01T09:39:15.231Z,2.00
2022-08-01T09:44:18.763Z,2.20
2022-08-01T09:49:51.566Z,2.00
2022-08-01T09:55:06.335Z,2.50
2022-08-01T10:00:35.630Z,1.40
2022-08-01T10:05:43.125Z,3.10
2022-08-01T10:11:12.157Z,6.70
2022-08-01T10:16:14.855Z,2.00
2022-08-01T10:21:18.255Z,2.20
2022-08-01T10:26:40.319Z,1.50
2022-08-01T10:31:42.712Z,1.40
2022-08-01T10:36:52.019Z,2.60
2022-08-01T10:41:55.679Z,2.20
2022-08-01T10:47:26.929Z,1.70
2022-08-01T10:53:15.305Z,1.90
2022-08-01T10:58:27.256Z,1.60
2022-08-01T11:04:06.191Z,1.50
2022-08-01T11:09:16.318Z,2.80
2022-08-01T11:14:25.945Z,1.80
2022-08-01T11:20:06.283Z,3.20
2022-08-01T11:25:09.084Z,1.80
2022-08-01T11:30:13.347Z,3.50
2022-08-01T11:35:17.134Z,2.10
2022-08-01T11:40:24.959Z,1.60
2022-08-01T11:45:49.826Z,3.10
2022-08-01T11:50:52.188Z,1.70
2022-08-01T11:55:55.150Z,2.80
2022-08-01T12:00:59.628Z,3.10
2022-08-01T12:06:02.139Z,1.70
2022-08-01T12:11:06.834Z,2.00
2022-08-01T12:16:09.948Z,1.70
2022-08-01T12:21:11.228Z,1.70
2022-08-01T12:26:28.458Z,3.00
2022-08-01T12:31:34.881Z,1.50
2022-08-01T12:36:36.602Z,4.50
2022-08-01T12:41:38.104Z,1.40
2022-08-01T12:46:44.302Z,4.80
2022-08-01T12:51:46.312Z,3.50
2022-08-01T12:56:58.946Z,3.00
2022-08-01T13:02:09.270Z,4.70
2022-08-01T13:07:10.617Z,3.60
2022-08-01T13:12:12.016Z,3.50
2022-08-01T13:17:30.319Z,3.10
2022-08-01T13:22:38.106Z,1.70
2022-08-01T13:27:39.442Z,2.40
2022-08-01T13:33:01.195Z,2.50
2022-08-01T13:38:03.379Z,2.20
2022-08-01T13:43:04.538Z,4.40
2022-08-01T13:48:13.024Z,2.50
2022-08-01T13:53:20.457Z,1.60
2022-08-01T13:58:21.771Z,1.50
2022-08-01T14:03:26.587Z,2.30
2022-08-01T14:08:35.146Z,2.30
2022-08-01T14:13:45.294Z,4.50
2022-08-01T14:18:47.978Z,1.90
2022-08-01T14:23:49.451Z,2.30
2022-08-01T14:28:52.456Z,2.30
2022-08-01T14:33:53.721Z,2.40
2022-08-01T14:38:55.014Z,2.90
2022-08-01T14:44:02.330Z,2.80
2022-08-01T14:49:03.627Z,1.70
2022-08-01T14:54:06.176Z,2.30
2022-08-01T14:59:12.396Z,6.30
2022-08-01T15:04:22.674Z,5.40
2022-08-01T15:09:23.876Z,4.70
2022-08-01T15:14:41.224Z,6.60
2022-08-01T15:19:42.677Z,2.50
2022-08-01T15:24:44.199Z,4.90
2022-08-01T15:29:45.603Z,2.10
2022-08-01T15:34:47.493Z,2.50
2022-08-01T15:39:48.962Z,2.50
2022-08-01T15:44:50.128Z,4.60
2022-08-01T15:49:52.477Z,2.10
2022-08-01T15:54:53.894Z,2.10
2022-08-01T15:59:55.031Z,3.40
2022-08-01T16:04:56.201Z,2.20
2022-08-01T16:09:57.471Z,3.20
2022-08-01T16:14:58.766Z,1.90
2022-08-01T16:20:00.061Z,2.00
2022-08-01T16:25:03.239Z,3.70
2022-08-01T16:30:05.202Z,2.00
2022-08-01T16:35:06.983Z,2.40
2022-08-01T16:40:09.001Z,2.30
2022-08-01T16:45:13.890Z,3.40
2022-08-01T16:50:15.763Z,2.80
2022-08-01T16:55:20.271Z,2.30
2022-08-01T17:00:23.563Z,2.30
2022-08-01T17:05:25.054Z,3.50
2022-08-01T17:10:26.274Z,5.50
2022-08-01T17:15:31.944Z,2.70
2022-08-01T17:20:37.461Z,2.80
2022-08-01T17:25:38.634Z,5.30
2022-08-01T17:30:40.249Z,2.30
2022-08-01T17:35:41.457Z,4.30
2022-08-01T17:40:42.676Z,2.60
2022-08-01T17:45:50.238Z,2.10
2022-08-01T17:50:52.703Z,3.30
2022-08-01T17:55:57.120Z,2.30
2022-08-01T18:00:59.598Z,3.40
2022-08-01T18:06:01.513Z,3.20
2022-08-01T18:11:02.903Z,2.20
2022-08-01T18:16:08.233Z,3.60
2022-08-01T18:21:10.820Z,6.10
2022-08-01T18:26:12.058Z,4.70
2022-08-01T18:31:15.647Z,4.80
2022-08-01T18:36:33.190Z,5.00
2022-08-01T18:41:36.908Z,4.20
2022-08-01T18:46:39.420Z,6.30
2022-08-01T18:51:44.719Z,4.90
2022-08-01T18:56:46.950Z,3.90
2022-08-01T19:01:48.326Z,6.40
2022-08-01T19:06:49.848Z,5.60
2022-08-01T19:11:50.994Z,3.80
2022-08-01T19:16:52.227Z,7.10
2022-08-01T19:21:54.458Z,4.80
2022-08-01T19:26:58.240Z,3.80
2022-08-01T19:32:02.674Z,3.60
2022-08-01T19:37:04.549Z,3.60
2022-08-01T19:42:08.876Z,4.10
2022-08-01T19:47:12.190Z,3.60
2022-08-01T19:52:18.497Z,8.00
2022-08-01T19:57:21.364Z,4.60
2022-08-01T20:02:24.925Z,4.00
2022-08-01T20:07:27.653Z,4.70
2022-08-01T20:12:29.518Z,5.10
2022-08-01T20:17:30.660Z,3.60
2022-08-01T20:22:34.527Z,7.70
2022-08-01T20:27:38.086Z,9.80
2022-08-01T20:32:40.664Z,9.70
2022-08-01T20:38:03.964Z,6.70
2022-08-01T20:43:06.435Z,4.40
2022-08-01T20:48:08.058Z,5.50
2022-08-01T20:53:09.313Z,4.50
2022-08-01T20:58:15.161Z,4.50
2022-08-01T21:03:25.649Z,6.20
2022-08-01T21:08:40.161Z,5.40
2022-08-01T21:13:44.957Z,5.20
2022-08-01T21:19:10.104Z,4.60
2022-08-01T21:24:17.596Z,8.10
2022-08-01T21:29:21.549Z,5.60
2022-08-01T21:34:24.240Z,5.70
2022-08-01T21:39:25.551Z,4.00
2022-08-01T21:44:29.332Z,4.10
2022-08-01T21:49:30.715Z,4.50
2022-08-01T21:55:15.634Z,4.20
2022-08-01T22:00:26.091Z,5.70
2022-08-01T22:05:49.884Z,6.20
2022-08-01T22:10:57.303Z,7.80
2022-08-01T22:15:58.844Z,6.10
2022-08-01T22:21:02.748Z,6.10
2022-08-01T22:26:08.755Z,7.00
2022-08-01T22:31:09.934Z,7.30
2022-08-01T22:36:12.759Z,5.90
2022-08-01T22:41:20.410Z,5.70
2022-08-01T22:46:46.103Z,4.40
2022-08-01T22:51:54.480Z,6.20
2022-08-01T22:57:07.392Z,5.20
2022-08-01T23:02:14.738Z,4.70
2022-08-01T23:07:31.259Z,5.20
2022-08-01T23:12:32.954Z,3.50
2022-08-01T23:17:34.409Z,4.30
2022-08-01T23:22:36.717Z,5.80
2022-08-01T23:27:51.469Z,4.20
2022-08-01T23:33:02.709Z,4.10
2022-08-01T23:38:04.206Z,5.50
2022-08-01T23:43:05.864Z,7.30
2022-08-01T23:48:16.230Z,5.60
2022-08-01T23:53:17.390Z,4.70
2022-08-01T23:58:20.191Z,5.10
